Time;durP1;ratioP1;P1;durP2;ratioP2;P2;SDS_P1;SDS_P2;PMS_P1;PMS_P2;Temp;Humidity;BMP_temperature;BMP_pressure;BME280_temperature;BME280_humidity;BME280_pressure;Samples;Min_cycle;Max_cycle;Signal;HPM_P1;HPM_P2
2021/08/02 00:00:03;;;;;;;22.17;14.52;;;16.80;67.90;;;;;;4946839;29;20876;-71
2021/08/02 00:02:31;;;;;;;18.33;14.38;;;16.80;67.90;;;;;;4950142;28;20397;-71
2021/08/02 00:05:02;;;;;;;17.50;14.80;;;16.80;67.70;;;;;;4953779;29;20413;-71
2021/08/02 00:07:29;;;;;;;18.90;15.20;;;16.90;66.20;;;;;;4942691;29;20404;-71
2021/08/02 00:10:04;;;;;;;20.15;15.30;;;16.90;67.30;;;;;;4934699;29;20395;-71
2021/08/02 00:12:30;;;;;;;17.98;14.52;;;16.90;67.70;;;;;;4949486;28;20402;-71
2021/08/02 00:14:58;;;;;;;19.70;14.88;;;16.90;65.70;;;;;;4953138;29;20497;-71
2021/08/02 00:17:24;;;;;;;19.60;14.95;;;17.00;66.40;;;;;;4953575;29;20418;-71
2021/08/02 00:19:52;;;;;;;19.60;15.37;;;17.00;64.00;;;;;;4939322;29;20482;-71
2021/08/02 00:22:18;;;;;;;21.70;14.52;;;16.90;64.70;;;;;;4947831;28;20410;-70
2021/08/02 00:24:44;;;;;;;19.70;15.07;;;16.90;65.90;;;;;;4953409;29;20925;-70
2021/08/02 00:27:10;;;;;;;22.88;15.50;;;16.80;66.00;;;;;;4952833;28;20398;-70
2021/08/02 00:29:38;;;;;;;20.23;14.90;;;16.80;66.20;;;;;;4953379;29;20779;-70
2021/08/02 00:32:04;;;;;;;21.30;14.10;;;17.00;64.20;;;;;;4941741;29;20919;-71
2021/08/02 00:34:30;;;;;;;19.00;14.57;;;16.90;64.40;;;;;;4934153;29;20403;-70
2021/08/02 00:36:59;;;;;;;19.93;14.90;;;16.90;65.00;;;;;;4934175;29;20396;-71
2021/08/02 00:39:40;;;;;;;19.33;13.10;;;16.90;64.40;;;;;;4943208;29;20485;-71
2021/08/02 00:42:11;;;;;;;19.90;14.20;;;17.10;64.00;;;;;;4952991;28;20421;-71
2021/08/02 00:44:46;;;;;;;18.60;13.65;;;17.20;60.70;;;;;;4961877;28;20412;-70
2021/08/02 00:47:17;;;;;;;19.88;14.00;;;17.20;60.70;;;;;;4972635;28;20392;-71
2021/08/02 00:49:50;;;;;;;18.50;12.60;;;17.10;60.50;;;;;;4972650;28;20392;-71
2021/08/02 00:52:20;;;;;;;18.08;13.93;;;17.10;61.00;;;;;;4957486;28;20820;-71
2021/08/02 00:54:48;;;;;;;19.05;13.07;;;17.10;61.20;;;;;;4944599;29;20411;-71
2021/08/02 00:57:17;;;;;;;18.75;13.10;;;17.10;60.70;;;;;;4941064;29;20410;-70
2021/08/02 00:59:44;;;;;;;17.17;12.93;;;17.00;61.40;;;;;;4952769;29;20425;-71
2021/08/02 01:02:10;;;;;;;21.08;13.15;;;16.90;62.10;;;;;;4952497;28;20393;-71
2021/08/02 01:04:38;;;;;;;22.20;12.60;;;16.90;63.20;;;;;;4937949;28;20419;-70
2021/08/02 01:07:08;;;;;;;17.70;13.05;;;16.90;60.10;;;;;;4953002;28;20401;-71
2021/08/02 01:09:36;;;;;;;15.18;11.90;;;16.80;61.10;;;;;;4953014;28;20386;-71
2021/08/02 01:12:03;;;;;;;19.75;11.60;;;16.80;63.30;;;;;;4949359;28;20397;-71
2021/08/02 01:14:29;;;;;;;22.00;10.75;;;16.70;64.50;;;;;;4953211;29;20522;-71
2021/08/02 01:16:56;;;;;;;17.40;10.60;;;16.80;58.40;;;;;;4953351;29;20435;-71
2021/08/02 01:19:22;;;;;;;12.77;9.32;;;16.90;56.90;;;;;;4952580;29;20860;-71
2021/08/02 01:21:49;;;;;;;15.00;9.40;;;16.80;55.70;;;;;;4949512;28;20421;-69
2021/08/02 01:24:15;;;;;;;16.97;9.20;;;16.80;55.80;;;;;;4952706;29;20393;-69
2021/08/02 01:26:44;;;;;;;13.30;8.68;;;16.70;55.90;;;;;;4952627;29;20413;-71
2021/08/02 01:29:47;;;;;;;16.92;9.60;;;16.60;56.20;;;;;;4952244;29;20895;-71
2021/08/02 01:32:14;;;;;;;16.05;9.60;;;16.60;57.20;;;;;;4949010;28;20465;-71
2021/08/02 01:34:39;;;;;;;15.05;10.40;;;16.60;58.50;;;;;;4946120;28;20952;-71
2021/08/02 01:37:06;;;;;;;16.07;10.30;;;16.60;59.10;;;;;;4933967;29;20400;-71
2021/08/02 01:39:33;;;;;;;13.80;8.75;;;16.60;59.60;;;;;;4937400;29;20810;-71
2021/08/02 01:41:59;;;;;;;15.95;9.32;;;16.70;59.20;;;;;;4946755;28;20401;-71
2021/08/02 01:44:25;;;;;;;14.70;9.27;;;16.60;60.00;;;;;;4960309;28;20443;-71
2021/08/02 01:47:03;;;;;;;20.48;9.90;;;16.70;59.50;;;;;;4956435;29;20473;-71
2021/08/02 01:49:39;;;;;;;20.67;9.23;;;16.70;58.00;;;;;;4956078;29;20429;-71
2021/08/02 01:52:08;;;;;;;18.85;8.55;;;16.70;57.50;;;;;;4953067;28;20404;-72
2021/08/02 01:54:43;;;;;;;17.83;8.20;;;16.80;56.10;;;;;;4956298;28;20440;-71
2021/08/02 01:57:20;;;;;;;21.27;9.20;;;16.70;54.80;;;;;;4956035;28;20448;-71
2021/08/02 01:59:52;;;;;;;23.20;8.10;;;16.70;55.10;;;;;;4955935;29;20429;-71
2021/08/02 02:02:19;;;;;;;25.60;8.20;;;16.70;55.10;;;;;;4955393;28;20416;-71
2021/08/02 02:04:59;;;;;;;23.60;7.70;;;16.70;54.20;;;;;;4956058;28;20409;-71
2021/08/02 02:07:28;;;;;;;25.33;8.30;;;16.70;52.80;;;;;;4936855;29;20403;-71
2021/08/02 02:09:57;;;;;;;27.67;7.50;;;16.70;52.40;;;;;;4936777;29;20409;-71
2021/08/02 02:12:23;;;;;;;21.20;5.95;;;16.70;53.30;;;;;;4948486;28;20838;-70
2021/08/02 02:14:52;;;;;;;25.58;6.25;;;16.60;50.40;;;;;;4956036;28;20426;-72
2021/08/02 02:17:22;;;;;;;22.70;5.22;;;16.50;50.60;;;;;;4955585;28;20433;-70
2021/08/02 02:19:51;;;;;;;21.08;5.55;;;16.40;50.30;;;;;;4955907;28;20390;-70
2021/08/02 02:22:21;;;;;;;22.63;5.20;;;16.30;51.20;;;;;;4954857;28;20406;-70
2021/08/02 02:24:47;;;;;;;21.38;5.18;;;16.30;52.10;;;;;;4955910;28;20408;-70
2021/08/02 02:27:13;;;;;;;18.50;5.30;;;16.30;50.40;;;;;;4955563;28;20402;-70
2021/08/02 02:29:40;;;;;;;20.83;5.47;;;16.30;51.50;;;;;;4951801;28;20395;-70
2021/08/02 02:32:06;;;;;;;20.75;5.47;;;16.30;51.60;;;;;;4942793;28;20397;-69
2021/08/02 02:34:34;;;;;;;18.55;5.60;;;16.30;51.80;;;;;;4955732;28;20386;-70
2021/08/02 02:37:01;;;;;;;20.02;5.20;;;16.30;51.50;;;;;;4955361;28;20394;-70
2021/08/02 02:39:28;;;;;;;13.73;5.28;;;16.30;51.80;;;;;;4954746;28;20398;-70
2021/08/02 02:41:54;;;;;;;18.50;5.70;;;16.30;52.00;;;;;;4955084;28;20449;-70
2021/08/02 02:44:22;;;;;;;19.55;5.78;;;16.30;52.20;;;;;;4973940;28;20479;-70
2021/08/02 02:46:47;;;;;;;15.20;5.28;;;16.40;50.60;;;;;;4974651;28;20405;-70
2021/08/02 02:49:15;;;;;;;16.43;5.80;;;16.30;50.10;;;;;;4973587;28;20873;-70
2021/08/02 02:51:43;;;;;;;18.75;5.15;;;16.40;48.90;;;;;;4954834;28;20401;-70
2021/08/02 02:54:08;;;;;;;16.63;5.32;;;16.40;49.40;;;;;;4954408;29;20404;-70
2021/08/02 02:56:34;;;;;;;12.30;4.65;;;16.30;49.10;;;;;;4955378;29;20398;-70
2021/08/02 02:59:00;;;;;;;15.00;5.05;;;16.30;49.60;;;;;;4954535;28;20408;-71
2021/08/02 03:01:34;;;;;;;18.53;5.40;;;16.40;49.30;;;;;;4954642;29;20867;-71
2021/08/02 03:04:00;;;;;;;12.82;4.80;;;16.30;49.90;;;;;;4954423;29;20918;-73
2021/08/02 03:06:27;;;;;;;19.02;5.80;;;16.40;48.40;;;;;;4954938;28;20818;-72
2021/08/02 03:08:54;;;;;;;13.57;5.28;;;16.40;48.20;;;;;;4953875;29;20401;-71
2021/08/02 03:11:21;;;;;;;20.77;5.93;;;16.30;49.10;;;;;;4955038;29;20453;-72
2021/08/02 03:13:50;;;;;;;15.82;5.70;;;16.30;49.60;;;;;;4991392;23;20927;-75
2021/08/02 03:16:17;;;;;;;12.95;5.68;;;16.30;49.30;;;;;;4993404;28;20883;-75
2021/08/02 03:18:43;;;;;;;16.08;5.90;;;16.30;49.60;;;;;;4993964;28;20399;-75
2021/08/02 03:21:08;;;;;;;18.05;5.93;;;16.40;50.10;;;;;;4992911;28;20401;-75
2021/08/02 03:23:42;;;;;;;15.55;5.85;;;16.40;50.20;;;;;;4994426;28;20481;-74
2021/08/02 03:26:22;;;;;;;20.57;6.50;;;16.30;49.40;;;;;;4981131;28;20511;-75
2021/08/02 03:29:14;;;;;;;23.17;6.00;;;16.30;49.60;;;;;;4973782;28;20832;-75
2021/08/02 03:31:53;;;;;;;17.77;5.90;;;16.20;50.50;;;;;;4969340;28;20400;-74
2021/08/02 03:34:23;;;;;;;18.30;6.00;;;16.10;51.40;;;;;;4974876;28;20400;-76
2021/08/02 03:36:50;;;;;;;15.52;5.90;;;16.10;52.40;;;;;;4976969;28;20404;-76
2021/08/02 03:39:18;;;;;;;16.73;5.97;;;16.20;51.10;;;;;;4973915;28;20480;-75
2021/08/02 03:41:44;;;;;;;15.20;6.10;;;16.30;50.90;;;;;;4974136;28;20402;-76
2021/08/02 03:44:12;;;;;;;20.73;6.03;;;16.30;51.00;;;;;;4973770;28;20418;-76
2021/08/02 03:46:39;;;;;;;19.67;6.13;;;16.30;51.20;;;;;;4973753;28;20503;-76
2021/08/02 03:49:05;;;;;;;16.77;7.00;;;16.30;51.00;;;;;;4972804;28;20411;-75
2021/08/02 03:51:48;;;;;;;22.77;6.90;;;16.20;51.80;;;;;;4973699;28;20471;-76
2021/08/02 03:54:15;;;;;;;17.27;6.80;;;16.20;52.00;;;;;;4954844;28;20405;-76
2021/08/02 03:56:43;;;;;;;21.60;6.10;;;16.20;51.80;;;;;;4964735;28;20899;-76
2021/08/02 03:59:09;;;;;;;17.15;6.40;;;16.20;50.60;;;;;;4979335;28;20396;-76
2021/08/02 04:01:42;;;;;;;13.63;5.80;;;16.20;50.60;;;;;;4972045;28;20459;-75
2021/08/02 04:04:09;;;;;;;15.55;6.30;;;16.30;51.40;;;;;;4973154;28;20404;-75
2021/08/02 04:06:35;;;;;;;19.55;6.57;;;16.30;51.80;;;;;;4974527;28;20408;-76
2021/08/02 04:09:03;;;;;;;17.92;6.95;;;16.30;51.00;;;;;;4972691;28;20405;-76
2021/08/02 04:11:29;;;;;;;12.55;5.68;;;16.30;51.40;;;;;;4973406;28;20427;-75
2021/08/02 04:13:54;;;;;;;13.53;6.20;;;16.20;51.80;;;;;;4971965;28;20917;-75
2021/08/02 04:16:20;;;;;;;14.77;5.90;;;16.30;51.70;;;;;;4972626;28;20407;-75
2021/08/02 04:18:45;;;;;;;22.27;6.80;;;16.30;51.20;;;;;;4973411;28;20523;-76
2021/08/02 04:21:11;;;;;;;14.82;6.40;;;16.30;51.90;;;;;;4973462;28;20408;-76
2021/08/02 04:23:37;;;;;;;19.85;6.18;;;16.30;51.80;;;;;;4976798;28;20406;-76
2021/08/02 04:26:02;;;;;;;13.40;6.27;;;16.30;50.60;;;;;;4973448;28;20416;-76
2021/08/02 04:28:28;;;;;;;17.87;6.40;;;16.30;51.90;;;;;;4973982;28;20487;-76
2021/08/02 04:30:53;;;;;;;17.97;6.70;;;16.30;50.40;;;;;;4974028;28;20384;-74
2021/08/02 04:33:19;;;;;;;11.00;6.45;;;16.30;50.90;;;;;;4974675;28;20419;-75
2021/08/02 04:35:44;;;;;;;14.15;6.50;;;16.20;52.40;;;;;;4990566;28;20863;-76
2021/08/02 04:38:10;;;;;;;11.23;6.23;;;16.30;51.30;;;;;;4973212;28;20416;-76
2021/08/02 04:40:36;;;;;;;139.90;88.30;;;16.50;50.30;;;;;;4972665;28;20408;-76
2021/08/02 04:43:03;;;;;;;16.60;6.00;;;16.40;51.30;;;;;;4972553;28;20497;-74
2021/08/02 04:45:28;;;;;;;12.60;6.57;;;16.50;50.40;;;;;;4975503;28;20867;-75
2021/08/02 04:47:54;;;;;;;14.53;6.10;;;16.50;50.00;;;;;;4970811;28;20484;-75
2021/08/02 04:50:20;;;;;;;38.03;21.50;;;16.50;49.60;;;;;;4972528;28;20387;-77
2021/08/02 04:52:47;;;;;;;12.98;6.70;;;16.50;50.90;;;;;;4991162;28;20481;-77
2021/08/02 04:55:13;;;;;;;16.35;6.85;;;16.60;49.50;;;;;;4974254;28;20483;-77
2021/08/02 04:57:39;;;;;;;11.73;6.60;;;16.60;49.30;;;;;;4974816;28;20416;-77
2021/08/02 05:00:06;;;;;;;39.50;23.75;;;16.60;48.90;;;;;;4975833;28;20456;-75
2021/08/02 05:02:32;;;;;;;19.50;9.30;;;16.60;49.10;;;;;;4990598;28;20454;-76
2021/08/02 05:04:57;;;;;;;13.27;6.20;;;16.70;49.50;;;;;;4973377;28;20554;-76
2021/08/02 05:07:23;;;;;;;16.73;7.47;;;16.80;48.10;;;;;;4968844;28;20400;-76
2021/08/02 05:09:49;;;;;;;14.40;6.20;;;16.90;48.20;;;;;;4974468;28;20391;-75
2021/08/02 05:12:14;;;;;;;11.38;5.80;;;17.00;46.50;;;;;;4976792;28;20396;-76
2021/08/02 05:14:40;;;;;;;14.57;7.43;;;17.10;46.00;;;;;;4999284;28;20939;-77
2021/08/02 05:17:07;;;;;;;14.63;7.13;;;17.10;45.30;;;;;;5000571;28;20393;-76
2021/08/02 05:19:33;;;;;;;12.38;5.35;;;17.10;43.80;;;;;;4997017;28;20386;-76
2021/08/02 05:21:58;;;;;;;17.40;7.70;;;17.00;43.70;;;;;;5009633;28;20419;-78
2021/08/02 05:24:24;;;;;;;12.70;5.45;;;17.00;45.00;;;;;;5010101;28;20406;-77
2021/08/02 05:26:49;;;;;;;18.90;7.20;;;17.10;43.60;;;;;;5000881;28;20426;-77
2021/08/02 05:29:15;;;;;;;10.40;5.37;;;17.00;43.50;;;;;;4981905;28;20484;-77
2021/08/02 05:31:41;;;;;;;16.92;6.10;;;17.10;42.40;;;;;;4989494;28;20939;-77
2021/08/02 05:34:06;;;;;;;12.48;6.20;;;17.10;42.20;;;;;;4992671;28;20400;-75
2021/08/02 05:36:32;;;;;;;14.50;6.37;;;17.20;40.80;;;;;;4973410;28;20750;-77
2021/08/02 05:38:57;;;;;;;16.50;5.63;;;17.20;41.00;;;;;;4974050;28;20396;-76
2021/08/02 05:41:23;;;;;;;15.27;6.20;;;17.30;40.20;;;;;;4974130;28;20873;-77
2021/08/02 05:43:48;;;;;;;16.15;6.30;;;17.40;39.50;;;;;;4977619;28;20414;-77
2021/08/02 05:46:14;;;;;;;20.60;6.77;;;17.50;39.80;;;;;;4979238;28;20406;-77
2021/08/02 05:48:40;;;;;;;16.00;6.17;;;17.70;38.50;;;;;;4975682;28;20392;-78
2021/08/02 05:51:05;;;;;;;16.63;7.20;;;17.60;39.00;;;;;;4975641;28;20838;-77
2021/08/02 05:53:31;;;;;;;18.73;6.70;;;17.70;39.60;;;;;;4972580;28;20404;-75
2021/08/02 05:55:56;;;;;;;34.20;9.70;;;17.90;38.10;;;;;;4979042;28;20392;-76
2021/08/02 05:58:22;;;;;;;13.77;6.43;;;18.00;38.20;;;;;;4981921;28;20455;-76
2021/08/02 06:00:47;;;;;;;14.65;6.75;;;18.00;37.50;;;;;;4981404;28;20400;-77
2021/08/02 06:03:13;;;;;;;13.23;6.47;;;18.20;36.80;;;;;;4977379;28;20396;-76
2021/08/02 06:05:38;;;;;;;11.70;5.80;;;18.30;35.50;;;;;;4971875;28;20490;-76
2021/08/02 06:08:04;;;;;;;14.77;6.78;;;18.20;35.00;;;;;;4988123;28;20790;-75
2021/08/02 06:10:30;;;;;;;11.75;6.03;;;18.10;35.60;;;;;;4971432;28;20388;-75
2021/08/02 06:12:55;;;;;;;13.33;6.20;;;18.10;36.10;;;;;;4972966;28;20479;-76
2021/08/02 06:15:21;;;;;;;16.07;6.50;;;18.10;36.00;;;;;;4973354;28;20387;-76
2021/08/02 06:17:46;;;;;;;14.30;6.30;;;18.10;35.70;;;;;;4971549;28;20411;-76
2021/08/02 06:20:12;;;;;;;13.88;5.70;;;18.10;35.80;;;;;;4973155;28;20443;-76
2021/08/02 06:22:38;;;;;;;12.00;5.25;;;18.10;36.00;;;;;;4973870;28;20400;-75
2021/08/02 06:25:05;;;;;;;14.45;5.05;;;18.10;35.50;;;;;;4975566;28;20431;-78
2021/08/02 06:27:31;;;;;;;16.20;5.15;;;17.90;35.90;;;;;;4975249;28;20837;-77
2021/08/02 06:30:03;;;;;;;14.80;4.95;;;18.10;34.90;;;;;;4976615;28;20396;-78
2021/08/02 06:32:29;;;;;;;11.13;4.80;;;18.10;33.70;;;;;;4987115;28;20398;-75
2021/08/02 06:34:55;;;;;;;13.23;5.10;;;18.00;35.00;;;;;;4991617;28;20769;-74
2021/08/02 06:37:22;;;;;;;16.40;5.20;;;17.90;35.20;;;;;;4980836;28;20409;-75
2021/08/02 06:39:48;;;;;;;16.38;6.22;;;17.70;35.70;;;;;;4981738;28;20400;-75
2021/08/02 06:42:14;;;;;;;14.67;7.00;;;17.70;36.20;;;;;;4976050;28;20419;-76
2021/08/02 06:44:41;;;;;;;10.68;6.00;;;17.70;36.60;;;;;;4978153;28;20494;-74
2021/08/02 06:47:06;;;;;;;17.83;6.18;;;17.70;37.00;;;;;;4981840;28;20399;-75
2021/08/02 06:49:32;;;;;;;16.90;6.07;;;17.80;36.80;;;;;;4976274;28;20396;-77
2021/08/02 06:51:57;;;;;;;15.55;5.55;;;17.80;36.60;;;;;;4976202;28;20388;-75
2021/08/02 06:54:23;;;;;;;16.25;5.05;;;17.90;34.50;;;;;;4976556;28;20925;-74
2021/08/02 06:56:48;;;;;;;13.50;5.17;;;17.80;33.70;;;;;;4977041;28;20404;-75
2021/08/02 06:59:14;;;;;;;13.43;5.20;;;17.70;35.20;;;;;;4976251;28;20396;-75
2021/08/02 07:01:40;;;;;;;11.55;4.75;;;17.70;36.10;;;;;;4994992;28;20454;-74
2021/08/02 07:04:05;;;;;;;12.60;4.83;;;17.80;34.80;;;;;;4980710;28;20412;-77
2021/08/02 07:06:31;;;;;;;16.67;5.70;;;18.00;34.50;;;;;;4988922;28;20475;-77
2021/08/02 07:08:59;;;;;;;10.73;4.50;;;18.00;34.20;;;;;;4986683;28;20488;-76
2021/08/02 07:11:26;;;;;;;7.75;3.97;;;18.20;34.20;;;;;;4998312;28;20446;-78
2021/08/02 07:13:54;;;;;;;10.00;3.60;;;18.20;31.60;;;;;;4980833;28;20415;-78
2021/08/02 07:16:22;;;;;;;7.30;3.65;;;18.20;32.00;;;;;;4991955;28;20404;-79
2021/08/02 07:18:48;;;;;;;11.38;4.03;;;18.40;31.50;;;;;;4976900;28;20432;-80
2021/08/02 07:21:13;;;;;;;17.33;4.13;;;18.50;31.40;;;;;;4973796;28;20491;-78
2021/08/02 07:23:40;;;;;;;12.00;4.07;;;18.60;31.50;;;;;;4977999;28;20734;-78
2021/08/02 07:26:06;;;;;;;8.90;4.30;;;18.80;31.00;;;;;;4980287;28;20416;-79
2021/08/02 07:28:32;;;;;;;6.32;3.85;;;18.80;29.70;;;;;;4984805;28;20392;-78
2021/08/02 07:30:57;;;;;;;7.00;4.00;;;18.80;29.50;;;;;;4979819;28;20392;-77
2021/08/02 07:33:23;;;;;;;9.40;4.13;;;19.00;29.30;;;;;;4980745;28;20408;-77
2021/08/02 07:35:49;;;;;;;9.93;4.10;;;19.00;27.90;;;;;;4987054;28;20486;-78
2021/08/02 07:38:14;;;;;;;10.50;4.65;;;19.00;28.70;;;;;;4989980;28;20408;-78
2021/08/02 07:40:40;;;;;;;9.68;4.85;;;19.30;29.00;;;;;;4976301;28;20400;-78
2021/08/02 07:43:06;;;;;;;17.50;5.10;;;19.50;28.90;;;;;;4973424;28;20404;-77
2021/08/02 07:45:32;;;;;;;13.52;5.90;;;19.60;27.10;;;;;;4974105;28;20416;-77
2021/08/02 07:47:57;;;;;;;12.13;6.23;;;19.70;27.10;;;;;;4975589;28;20430;-77
2021/08/02 07:50:23;;;;;;;12.83;5.97;;;19.80;26.70;;;;;;4975466;28;20419;-77
2021/08/02 07:52:49;;;;;;;13.98;5.53;;;19.90;25.90;;;;;;4989498;28;20403;-77
2021/08/02 07:55:14;;;;;;;12.23;5.50;;;19.80;26.10;;;;;;4984438;28;20388;-77
2021/08/02 07:57:41;;;;;;;10.98;4.70;;;19.80;26.30;;;;;;4978725;28;20770;-77
2021/08/02 08:00:11;;;;;;;9.02;5.22;;;20.00;25.40;;;;;;4955440;29;20903;-76
2021/08/02 08:02:37;;;;;;;12.70;4.43;;;20.30;25.50;;;;;;4960709;28;20408;-77
2021/08/02 08:05:02;;;;;;;10.65;4.38;;;20.50;23.50;;;;;;4975952;28;20472;-77
2021/08/02 08:07:28;;;;;;;9.85;4.20;;;20.30;24.90;;;;;;4974398;28;20442;-77
2021/08/02 08:09:54;;;;;;;5.25;3.47;;;20.40;23.60;;;;;;4982262;28;20392;-75
2021/08/02 08:12:19;;;;;;;8.63;4.10;;;20.30;22.90;;;;;;4998419;28;20439;-76
2021/08/02 08:14:45;;;;;;;10.30;4.60;;;20.20;23.30;;;;;;4980334;28;20963;-76
2021/08/02 08:17:10;;;;;;;10.48;5.28;;;19.90;24.80;;;;;;4984985;28;20463;-77
2021/08/02 08:19:36;;;;;;;11.13;4.87;;;19.80;25.50;;;;;;4987162;28;20396;-77
2021/08/02 08:22:02;;;;;;;5.43;3.60;;;19.60;25.00;;;;;;4980510;28;20799;-77
2021/08/02 08:24:27;;;;;;;8.48;4.00;;;19.30;25.30;;;;;;4977884;28;20805;-78
2021/08/02 08:26:53;;;;;;;12.45;4.00;;;19.00;27.00;;;;;;4986081;28;20416;-77
2021/08/02 08:29:18;;;;;;;11.77;4.55;;;18.90;27.30;;;;;;4978722;28;20396;-78
2021/08/02 08:31:44;;;;;;;7.10;3.80;;;18.80;27.50;;;;;;4976788;28;20403;-74
2021/08/02 08:34:10;;;;;;;9.50;4.47;;;18.80;28.10;;;;;;4979940;28;20410;-77
2021/08/02 08:36:36;;;;;;;11.70;4.90;;;18.60;29.00;;;;;;4999174;28;20394;-77
2021/08/02 08:39:03;;;;;;;9.98;5.03;;;18.40;28.90;;;;;;4996890;28;20410;-77
2021/08/02 08:41:29;;;;;;;10.70;4.80;;;18.40;30.00;;;;;;4997347;28;20420;-76
2021/08/02 08:43:54;;;;;;;12.90;4.90;;;18.30;31.00;;;;;;4995615;28;20831;-73
2021/08/02 08:46:21;;;;;;;13.43;5.70;;;18.30;30.90;;;;;;4996285;28;20410;-77
2021/08/02 08:48:48;;;;;;;9.73;4.97;;;18.40;30.90;;;;;;5006532;28;20402;-77
2021/08/02 08:51:14;;;;;;;13.13;5.25;;;18.40;31.80;;;;;;5005410;28;20402;-77
2021/08/02 08:53:44;;;;;;;13.35;6.20;;;18.40;32.10;;;;;;4998764;28;20399;-77
2021/08/02 08:56:14;;;;;;;11.30;5.95;;;18.20;32.80;;;;;;4995606;28;20387;-77
2021/08/02 08:58:39;;;;;;;9.23;5.40;;;18.20;33.20;;;;;;4978450;28;20410;-78
2021/08/02 09:01:06;;;;;;;9.93;4.93;;;18.10;33.90;;;;;;4996507;28;20398;-76
2021/08/02 09:03:31;;;;;;;11.35;4.50;;;18.10;34.10;;;;;;4995111;28;20461;-78
2021/08/02 09:06:05;;;;;;;10.48;4.30;;;18.10;32.30;;;;;;4994099;28;20418;-75
2021/08/02 09:08:43;;;;;;;11.05;4.15;;;17.90;31.00;;;;;;4993540;28;20394;-76
2021/08/02 09:11:15;;;;;;;7.45;4.22;;;18.00;31.10;;;;;;4993217;28;20395;-77
2021/08/02 09:13:41;;;;;;;12.48;6.18;;;18.10;31.10;;;;;;4976690;28;20415;-76
2021/08/02 09:16:21;;;;;;;13.73;6.43;;;18.00;31.40;;;;;;4992137;28;20402;-75
2021/08/02 09:19:00;;;;;;;9.43;5.38;;;18.10;31.70;;;;;;4992248;28;20425;-75
2021/08/02 09:21:27;;;;;;;12.07;5.65;;;18.40;31.60;;;;;;4991933;28;20849;-76
2021/08/02 09:23:55;;;;;;;10.27;4.75;;;18.80;31.80;;;;;;4991750;28;20401;-76
2021/08/02 09:26:37;;;;;;;9.25;4.60;;;19.10;29.30;;;;;;4991757;28;20922;-76
2021/08/02 09:29:04;;;;;;;10.00;4.43;;;19.80;26.70;;;;;;4991396;28;20425;-74
2021/08/02 09:31:33;;;;;;;11.40;4.88;;;20.20;24.70;;;;;;4992186;28;20414;-74
2021/08/02 09:34:07;;;;;;;5.32;3.40;;;20.20;25.10;;;;;;4992211;28;20922;-75
2021/08/02 09:36:44;;;;;;;3.65;2.00;;;20.30;23.00;;;;;;4991211;28;20401;-75
2021/08/02 09:39:15;;;;;;;4.25;2.60;;;20.50;19.80;;;;;;4991214;28;20826;-75
2021/08/02 09:41:42;;;;;;;8.07;3.28;;;20.70;20.80;;;;;;4991533;28;20389;-73
2021/08/02 09:44:22;;;;;;;4.00;2.50;;;21.20;19.80;;;;;;4991524;28;20389;-75
2021/08/02 09:46:55;;;;;;;7.03;2.67;;;21.40;18.90;;;;;;4991880;28;20432;-74
2021/08/02 09:49:22;;;;;;;4.72;2.00;;;21.20;18.40;;;;;;4974432;28;20394;-75
2021/08/02 09:51:47;;;;;;;3.15;1.42;;;21.20;18.10;;;;;;4992090;28;20413;-74
2021/08/02 09:54:27;;;;;;;5.28;1.80;;;21.00;17.70;;;;;;4991555;28;20879;-73
2021/08/02 09:56:54;;;;;;;3.05;1.20;;;21.50;16.90;;;;;;4991376;28;20433;-74
2021/08/02 09:59:20;;;;;;;2.28;1.10;;;21.80;14.60;;;;;;4992675;28;20425;-74
2021/08/02 10:01:50;;;;;;;2.30;1.70;;;21.90;14.20;;;;;;4994621;28;20410;-75
2021/08/02 10:04:17;;;;;;;2.90;1.40;;;22.10;14.40;;;;;;4995138;28;20402;-75
2021/08/02 10:06:43;;;;;;;4.38;1.60;;;22.40;15.00;;;;;;4979805;28;20790;-74
2021/08/02 10:09:12;;;;;;;5.40;1.80;;;22.50;15.20;;;;;;4988476;28;20400;-75
2021/08/02 10:11:38;;;;;;;3.40;1.60;;;22.70;14.80;;;;;;4994629;28;20911;-75
2021/08/02 10:14:04;;;;;;;2.85;1.30;;;22.70;14.60;;;;;;4994934;28;20446;-73
2021/08/02 10:16:30;;;;;;;3.42;2.00;;;22.20;15.40;;;;;;4977945;28;20406;-74
2021/08/02 10:19:10;;;;;;;4.45;1.95;;;21.90;16.50;;;;;;4995281;28;20400;-74
2021/08/02 10:21:47;;;;;;;4.05;1.63;;;21.50;16.60;;;;;;4995479;28;20453;-75
2021/08/02 10:24:17;;;;;;;2.40;1.60;;;21.70;16.30;;;;;;4995211;28;20398;-76
2021/08/02 10:26:57;;;;;;;3.40;1.48;;;21.80;15.90;;;;;;4994850;28;20414;-75
2021/08/02 10:29:23;;;;;;;6.25;1.60;;;21.90;15.40;;;;;;4995908;28;20407;-75
2021/08/02 10:31:51;;;;;;;1.80;1.55;;;21.80;15.10;;;;;;4995813;28;20402;-75
2021/08/02 10:34:24;;;;;;;3.80;1.30;;;21.30;15.90;;;;;;4996860;28;20413;-74
2021/08/02 10:37:05;;;;;;;1.40;1.30;;;21.10;16.80;;;;;;4996487;28;20497;-75
2021/08/02 10:39:35;;;;;;;2.80;1.60;;;21.10;16.30;;;;;;4996539;28;20895;-74
2021/08/02 10:42:27;;;;;;;3.05;1.90;;;21.30;16.70;;;;;;4996222;28;20409;-74
2021/08/02 10:44:54;;;;;;;4.30;1.95;;;21.80;16.20;;;;;;4991442;28;20414;-73
2021/08/02 10:47:19;;;;;;;4.43;1.40;;;22.10;16.30;;;;;;4994457;28;20398;-74
2021/08/02 10:49:53;;;;;;;3.73;1.43;;;22.10;15.10;;;;;;4994328;28;20485;-74
2021/08/02 10:52:28;;;;;;;2.05;1.48;;;22.30;15.00;;;;;;4995068;28;20390;-75
2021/08/02 10:54:54;;;;;;;1.90;1.50;;;22.40;14.20;;;;;;4996721;28;20727;-73
2021/08/02 10:57:20;;;;;;;3.50;1.60;;;22.40;15.00;;;;;;4997156;28;20399;-75
2021/08/02 10:59:45;;;;;;;2.53;1.50;;;22.30;14.60;;;;;;4994654;28;20872;-75
2021/08/02 11:02:12;;;;;;;1.50;1.40;;;23.00;13.30;;;;;;4995447;28;20411;-75
2021/08/02 11:04:40;;;;;;;3.17;1.60;;;23.00;13.60;;;;;;4988944;28;20894;-75
2021/08/02 11:07:06;;;;;;;2.63;1.70;;;23.20;13.40;;;;;;4994130;28;20478;-74
2021/08/02 11:09:36;;;;;;;3.47;1.73;;;23.20;13.10;;;;;;4993487;28;20410;-75
2021/08/02 11:12:06;;;;;;;2.85;1.40;;;23.50;13.40;;;;;;4993824;28;20863;-74
2021/08/02 11:14:32;;;;;;;3.17;1.50;;;23.50;12.50;;;;;;4993283;28;20406;-74
2021/08/02 11:16:57;;;;;;;2.63;1.58;;;23.50;12.60;;;;;;4993761;28;20393;-74
2021/08/02 11:19:31;;;;;;;3.03;1.80;;;23.40;12.80;;;;;;4993163;28;20403;-74
2021/08/02 11:22:00;;;;;;;2.63;1.52;;;23.30;13.20;;;;;;4993174;28;20434;-75
2021/08/02 11:24:30;;;;;;;3.80;1.60;;;23.40;13.10;;;;;;4993353;28;20398;-73
2021/08/02 11:26:58;;;;;;;2.37;1.57;;;23.40;13.60;;;;;;4994200;28;20410;-74
2021/08/02 11:29:30;;;;;;;2.08;1.83;;;23.70;13.10;;;;;;4994091;28;20492;-74
2021/08/02 11:32:10;;;;;;;2.42;1.60;;;23.70;13.50;;;;;;4992969;28;20414;-74
2021/08/02 11:34:38;;;;;;;1.60;1.50;;;23.70;12.50;;;;;;4976256;28;20477;-74
2021/08/02 11:37:06;;;;;;;2.80;1.67;;;23.50;11.60;;;;;;4993289;28;20553;-74
2021/08/02 11:39:34;;;;;;;3.28;1.42;;;23.30;12.60;;;;;;4993143;28;20434;-75
2021/08/02 11:42:06;;;;;;;3.05;1.73;;;23.20;13.00;;;;;;4993727;28;20481;-75
2021/08/02 11:44:33;;;;;;;4.20;1.50;;;23.40;12.70;;;;;;4993205;28;20548;-75
2021/08/02 11:46:59;;;;;;;2.08;1.55;;;23.60;12.40;;;;;;4993039;28;20906;-74
2021/08/02 11:49:27;;;;;;;3.42;1.80;;;23.60;12.90;;;;;;4993340;28;20442;-75
2021/08/02 11:51:54;;;;;;;2.30;1.70;;;23.70;12.70;;;;;;4992626;28;20399;-75
2021/08/02 11:54:29;;;;;;;4.90;1.73;;;24.00;13.30;;;;;;4993926;28;20387;-75
2021/08/02 11:56:55;;;;;;;2.40;2.00;;;24.20;11.40;;;;;;4993608;28;20509;-76
2021/08/02 11:59:21;;;;;;;2.10;1.60;;;24.40;10.60;;;;;;4992592;28;20402;-77
2021/08/02 12:01:48;;;;;;;3.38;2.13;;;24.10;12.20;;;;;;4994096;28;20422;-76
2021/08/02 12:04:15;;;;;;;4.68;2.10;;;23.90;11.60;;;;;;4994464;28;20456;-75
2021/08/02 12:06:52;;;;;;;5.50;2.00;;;24.00;12.10;;;;;;4992427;28;20421;-75
2021/08/02 12:09:32;;;;;;;6.65;2.13;;;24.10;11.60;;;;;;4992503;28;20422;-74
2021/08/02 12:11:58;;;;;;;5.47;2.20;;;23.90;11.90;;;;;;4977707;28;20394;-74
2021/08/02 12:14:26;;;;;;;4.97;2.70;;;24.00;11.80;;;;;;4992610;28;20395;-74
2021/08/02 12:17:08;;;;;;;5.30;2.40;;;24.50;11.50;;;;;;4992068;28;20449;-74
2021/08/02 12:19:51;;;;;;;4.50;2.10;;;24.70;10.50;;;;;;4991473;28;20763;-74
2021/08/02 12:22:19;;;;;;;4.10;2.65;;;24.70;10.30;;;;;;4991136;28;20894;-75
2021/08/02 12:24:49;;;;;;;4.40;2.30;;;24.90;10.00;;;;;;4991541;28;20403;-74
2021/08/02 12:27:16;;;;;;;3.92;2.65;;;24.60;10.00;;;;;;4991680;28;20457;-73
2021/08/02 12:29:42;;;;;;;6.15;2.90;;;24.70;10.50;;;;;;4991847;28;20771;-74
2021/08/02 12:32:07;;;;;;;7.43;3.10;;;25.10;11.10;;;;;;4992363;28;20429;-75
2021/08/02 12:34:33;;;;;;;7.27;3.40;;;25.40;9.50;;;;;;4991578;28;20442;-74
2021/08/02 12:37:00;;;;;;;7.72;3.28;;;25.00;10.60;;;;;;4991555;28;20401;-72
2021/08/02 12:39:29;;;;;;;7.17;3.30;;;24.80;10.40;;;;;;4991330;28;20414;-72
2021/08/02 12:41:55;;;;;;;4.28;2.90;;;24.80;11.50;;;;;;4991912;28;20402;-73